F E Warren AFB, Wyoming
Current Conditions -  °F | °C
As of 8:53 PM on Tuesday 25 Nov 2014 (Local Time) from KCYS Reporting Station
Light Snow Light Snow  
Wind Chill: 13°   Ceiling: 1700
Heat Index: 27°   Visibility: 1mi
Dew Point: 23°   Wind: 22mph
Humidity: 85%   Direction: 10°N
Pressure: 30"   Gusts: 35mph
Location:  41.13°N, 104.82°W
Report Text: KCYS 260353Z 01019G30KT 1SM -SN BR VV017 M03/M05 A3000 RMK AO2 PK WND 01030/0351 SLP184 P0002 T10281050 RVRNO
Loading
Personal Weather Stations






























Interactive Weather Map New forecast layout! Learn more

10-Day Weather Forecast

Advertisements
Track Severe Weather on mobile